• Join FlightAware (Why Join?)
  • Login
  • US Flag 
06:12PM EDT


 

Airport Tracker/Info


-or-


 

Live Flight TrackerFlight Track Log ✈ JZA8482 ✈ 19-Apr-2013 ✈ CYQU - CYYC

Flight Track Log - Related Links

Times and Time Zones

All times are in EDT time to prevent confusion due to time zone crossing. See the JZA8482 flight status page for this flight to view local times or setup timezone preferences in your user account.

Time Position Orientation Groundspeed Altitude Reporting Facility
EDT Latitude Longitude Course Direction KTS MPH feet Rate Location/Type
10:36PM 55.1833 -118.9833 144° Southeast 130 150 3,700  Level Edmonton Center
10:37PM 55.1667 -119.0167 229° Southwest 140 161 5,000 1,440 Climbing Edmonton Center
10:38PM 55.1333 -118.9667 139° Southeast 150 173 6,600 1,440 Climbing Edmonton Center
10:39PM 55.0833 -118.9167 150° Southeast 160 184 7,900 1,320 Climbing Edmonton Center
10:40PM 55.0500 -118.8833 150° Southeast 170 196 9,300 1,260 Climbing Edmonton Center
10:41PM 54.8272 -118.4144 142° Southeast  Level Estimated
10:41PM 55.0167 -118.8000 125° Southeast 170 196 10,500  Level Edmonton Center
10:42PM 54.7683 -118.3368 144° Southeast  Level Estimated
10:42PM 54.9667 -118.7500 150° Southeast 180 207 11,900  Level Edmonton Center
10:43PM 54.9333 -118.7167 150° Southeast 180 207 12,900 1,080 Climbing Edmonton Center
10:44PM 54.8833 -118.6333 136° Southeast 200 230 14,100 1,200 Climbing Edmonton Center
10:45PM 54.8333 -118.5833 150° Southeast 210 242 15,400 1,200 Climbing Edmonton Center
10:46PM 54.7833 -118.5167 142° Southeast 210 242 16,600 1,140 Climbing Edmonton Center
10:47PM 54.7500 -118.4667 139° Southeast 210 242 17,700 1,140 Climbing Edmonton Center
10:48PM 54.7000 -118.4000 142° Southeast 220 253 18,900 1,140 Climbing Edmonton Center
10:49PM 54.6333 -118.3500 157° South 220 253 20,000 1,020 Climbing Edmonton Center
10:50PM 54.6000 -118.2667 125° Southeast 220 253 21,000 900 Climbing Edmonton Center
10:51PM 54.5333 -118.2167 156° South 220 253 21,800 720 Climbing Edmonton Center
10:52PM 54.4833 -118.1500 142° Southeast 230 265 22,500 600 Climbing Edmonton Center
10:53PM 54.4333 -118.0667 136° Southeast 230 265 23,000 240 Climbing Edmonton Center
10:54PM 54.3667 -118.0167 156° South 260 299 23,000  Level Edmonton Center
10:55PM 54.3000 -117.9333 144° Southeast 280 322 23,000  Level Edmonton Center
10:56PM 54.2500 -117.8500 136° Southeast 280 322 23,000  Level Edmonton Center
10:57PM 54.1833 -117.7833 150° Southeast 290 334 23,000  Level Edmonton Center
10:58PM 54.1167 -117.7000 144° Southeast 290 334 23,000  Level Edmonton Center
10:59PM 54.0500 -117.6167 144° Southeast 290 334 23,000  Level Edmonton Center
11:00PM 53.9833 -117.5000 134° Southeast 290 334 23,000  Level Edmonton Center
11:01PM 53.9167 -117.4333 149° Southeast 290 334 23,000  Level Edmonton Center
11:02PM 53.8333 -117.3500 149° Southeast 290 334 23,000  Level Edmonton Center
11:03PM 53.7833 -117.2667 135° Southeast 290 334 23,000  Level Edmonton Center
11:04PM 53.7167 -117.2000 149° Southeast 290 334 23,000  Level Edmonton Center
11:05PM 53.6500 -117.1167 143° Southeast 290 334 23,000  Level Edmonton Center
11:06PM 53.5833 -117.0333 143° Southeast 290 334 23,000  Level Edmonton Center
11:07PM 53.5000 -116.9500 149° Southeast 290 334 23,000  Level Edmonton Center
11:08PM 53.4500 -116.8833 142° Southeast 290 334 23,000  Level Edmonton Center
11:09PM 53.3833 -116.8000 143° Southeast 290 334 23,000  Level Edmonton Center
11:10PM 53.3167 -116.7333 149° Southeast 290 334 23,000  Level Edmonton Center
11:11PM 53.2500 -116.6500 143° Southeast 290 334 23,000  Level Edmonton Center
11:12PM 53.1833 -116.5833 149° Southeast 290 334 23,000  Level Edmonton Center
11:13PM 53.1000 -116.5000 149° Southeast 290 334 23,000  Level Edmonton Center
11:14PM 53.0500 -116.4167 135° Southeast 290 334 23,000  Level Edmonton Center
11:15PM 52.9833 -116.3500 149° Southeast 290 334 23,000  Level Edmonton Center
11:16PM 52.9000 -116.2667 149° Southeast 290 334 23,000  Level Edmonton Center
11:17PM 52.8500 -116.2000 141° Southeast 280 322 23,000  Level Edmonton Center
11:18PM 52.7833 -116.1333 149° Southeast 280 322 23,000  Level Edmonton Center
11:19PM 52.7000 -116.0500 149° Southeast 290 334 23,000  Level Edmonton Center
11:20PM 52.6500 -115.9833 141° Southeast 290 334 23,000  Level Edmonton Center
11:21PM 52.5833 -115.8833 138° Southeast 290 334 23,000  Level Edmonton Center
11:22PM 52.5000 -115.8333 160° South 290 334 23,000  Level Edmonton Center
11:23PM 52.4500 -115.7500 135° Southeast 290 334 23,000  Level Edmonton Center
11:24PM 52.3833 -115.6833 149° Southeast 280 322 23,000  Level Edmonton Center
11:25PM 52.3167 -115.5833 137° Southeast 290 334 23,000  Level Edmonton Center
11:26PM 52.2500 -115.5000 143° Southeast 290 334 23,000  Level Edmonton Center
11:27PM 52.1667 -115.4333 154° Southeast 290 334 23,000  Level Edmonton Center
11:28PM 52.1167 -115.3667 141° Southeast 290 334 23,000 -480 Level Edmonton Center
11:29PM 52.0500 -115.2833 142° Southeast 300 345 22,100 -1,200 Descending Edmonton Center
11:30PM 51.9667 -115.2167 154° Southeast 320 368 20,600 -1,500 Descending Edmonton Center
11:31PM 51.8833 -115.1500 154° Southeast 320 368 19,200 -1,500 Descending Edmonton Center
11:32PM 51.8167 -115.0500 137° Southeast 310 357 17,600 -1,500 Descending Edmonton Center
11:33PM 51.7500 -114.9667 142° Southeast 310 357 16,300 -1,380 Descending Edmonton Center
11:34PM 51.6667 -114.9000 154° Southeast 310 357 14,900 -1,440 Descending Edmonton Center
11:35PM 51.6000 -114.8333 148° Southeast 310 357 13,500 -1,380 Descending Edmonton Center
11:36PM 51.5333 -114.7333 137° Southeast 310 357 12,200 -1,380 Descending Edmonton Center
11:37PM 51.4833 -114.6000 121° Southeast 300 345 10,800 -1,200 Descending Edmonton Center
11:38PM 51.4333 -114.5500 148° Southeast 280 322 9,800 -1,020 Descending Edmonton Center
11:39PM 51.3667 -114.4500 137° Southeast 270 311 8,800 -1,020 Descending Edmonton Center
11:40PM 51.3333 -114.3500 118° Southeast 270 311 7,800 -1,020 Descending Edmonton Center
11:41PM 51.2667 -114.2833 148° Southeast 250 288 6,800 -900 Descending Edmonton Center
11:42PM 51.2000 -114.2833 180° South 210 242 6,100 -420 Descending Edmonton Center
11:43PM 51.1500 -114.2333 148° Southeast 170 196 6,000 -540 Descending Edmonton Center
11:44PM 51.1333 -114.1833 118° Southeast 170 196 5,100 -900 Descending Edmonton Center